createdAt,value
2023-04-03T00:03:36.851Z,3.23
2023-04-03T00:08:31.597Z,3.18
2023-04-03T00:13:23.548Z,3.15
2023-04-03T00:18:15.210Z,3.10
2023-04-03T00:23:07.105Z,3.05
2023-04-03T00:27:58.781Z,3.00
2023-04-03T00:32:51.884Z,2.96
2023-04-03T00:37:44.542Z,2.91
2023-04-03T00:42:37.881Z,2.84
2023-04-03T00:47:31.897Z,2.79
2023-04-03T00:52:27.843Z,2.72
2023-04-03T00:57:19.820Z,2.69
2023-04-03T01:02:11.890Z,2.69
2023-04-03T01:07:12.041Z,2.63
2023-04-03T01:12:17.862Z,2.60
2023-04-03T01:17:38.891Z,2.57
2023-04-03T01:22:51.512Z,2.53
2023-04-03T01:27:43.252Z,2.50
2023-04-03T01:32:34.917Z,2.47
2023-04-03T01:37:26.572Z,2.45
2023-04-03T01:42:18.372Z,2.43
2023-04-03T01:47:10.079Z,2.40
2023-04-03T01:52:01.778Z,2.38
2023-04-03T01:56:53.507Z,2.28
2023-04-03T02:01:46.320Z,2.29
2023-04-03T02:06:38.289Z,2.26
2023-04-03T02:11:29.862Z,2.23
2023-04-03T02:16:21.638Z,2.20
2023-04-03T02:21:13.252Z,2.18
2023-04-03T02:26:10.576Z,2.11
2023-04-03T02:31:02.534Z,2.09
2023-04-03T02:35:56.388Z,2.07
2023-04-03T02:40:48.387Z,2.04
2023-04-03T02:45:40.049Z,1.99
2023-04-03T02:50:31.701Z,1.93
2023-04-03T02:55:23.342Z,1.88
2023-04-03T03:00:15.649Z,1.81
2023-04-03T03:05:08.462Z,1.79
2023-04-03T03:10:00.410Z,1.73
2023-04-03T03:14:52.045Z,1.70
2023-04-03T03:19:43.981Z,1.65
2023-04-03T03:24:35.679Z,1.61
2023-04-03T03:29:27.356Z,1.60
2023-04-03T03:34:19.012Z,1.58
2023-04-03T03:39:11.291Z,1.55
2023-04-03T03:44:02.969Z,1.53
2023-04-03T03:48:54.644Z,1.49
2023-04-03T03:53:46.690Z,1.43
2023-04-03T03:58:38.345Z,1.40
2023-04-03T04:03:30.485Z,1.38
2023-04-03T04:08:22.162Z,1.33
2023-04-03T04:13:13.804Z,1.29
2023-04-03T04:18:05.777Z,1.28
2023-04-03T04:22:57.396Z,1.23
2023-04-03T04:27:49.079Z,1.20
2023-04-03T04:32:40.843Z,1.17
2023-04-03T04:37:32.703Z,1.15
2023-04-03T04:42:24.422Z,1.13
2023-04-03T04:47:16.029Z,1.10
2023-04-03T04:52:07.757Z,1.04
2023-04-03T04:56:59.537Z,1.01
2023-04-03T05:01:51.264Z,0.98
2023-04-03T05:06:43.005Z,0.94
2023-04-03T05:11:34.736Z,0.92
2023-04-03T05:16:26.628Z,0.89
2023-04-03T05:21:19.451Z,0.87
2023-04-03T05:26:11.087Z,0.87
2023-04-03T05:31:02.849Z,0.88
2023-04-03T05:35:55.832Z,0.86
2023-04-03T05:40:47.789Z,0.83
2023-04-03T05:45:39.662Z,0.80
2023-04-03T05:50:31.434Z,0.80
2023-04-03T05:55:23.078Z,0.79
2023-04-03T06:00:18.748Z,0.80
2023-04-03T06:05:12.696Z,0.82
2023-04-03T06:10:05.294Z,0.84
2023-04-03T06:14:57.001Z,0.87
2023-04-03T06:19:48.875Z,0.91
2023-04-03T06:24:41.211Z,0.97
2023-04-03T06:29:32.925Z,1.03
2023-04-03T06:34:24.598Z,1.13
2023-04-03T06:39:19.253Z,1.25
2023-04-03T06:44:12.302Z,1.40
2023-04-03T06:49:04.690Z,1.64
2023-04-03T06:53:58.760Z,1.90
2023-04-03T06:58:51.990Z,2.20
2023-04-03T07:03:43.638Z,2.39
2023-04-03T07:08:35.936Z,2.50
2023-04-03T07:13:28.038Z,2.85
2023-04-03T07:18:20.173Z,3.17
2023-04-03T07:23:12.026Z,3.68
2023-04-03T07:28:03.627Z,4.35
2023-04-03T07:32:55.296Z,5.14
2023-04-03T07:37:47.339Z,5.75
2023-04-03T07:42:39.343Z,6.31
2023-04-03T07:47:32.381Z,6.74
2023-04-03T07:52:25.048Z,7.19
2023-04-03T07:57:17.722Z,7.48
2023-04-03T08:02:13.550Z,7.85
2023-04-03T08:07:05.941Z,8.18
2023-04-03T08:11:57.630Z,8.43
2023-04-03T08:16:49.881Z,8.81
2023-04-03T08:21:42.586Z,9.33
2023-04-03T08:26:34.397Z,9.61
2023-04-03T08:31:26.077Z,9.91
2023-04-03T08:36:24.041Z,10.10
2023-04-03T08:41:40.935Z,10.55
2023-04-03T08:46:59.447Z,10.60
2023-04-03T08:51:52.559Z,10.65
2023-04-03T08:56:44.332Z,10.74
2023-04-03T09:01:39.473Z,10.87
2023-04-03T09:06:34.044Z,10.96
2023-04-03T09:11:48.214Z,11.04
2023-04-03T09:16:48.958Z,11.18
2023-04-03T09:21:44.040Z,11.63
2023-04-03T09:26:41.473Z,12.00
2023-04-03T09:31:44.819Z,12.35
2023-04-03T09:36:39.142Z,12.51
2023-04-03T09:41:30.753Z,12.41
2023-04-03T09:46:33.998Z,12.56
2023-04-03T09:51:29.960Z,12.50
2023-04-03T09:56:26.829Z,12.15
2023-04-03T10:01:39.256Z,11.81
2023-04-03T10:06:33.414Z,11.92
2023-04-03T10:11:26.300Z,12.02
2023-04-03T10:16:22.500Z,11.93
2023-04-03T10:21:47.024Z,12.35
2023-04-03T10:26:46.816Z,12.57
2023-04-03T10:31:49.581Z,12.33
2023-04-03T10:36:47.374Z,12.09
2023-04-03T10:42:15.913Z,12.05
2023-04-03T10:47:22.934Z,12.23
2023-04-03T10:52:39.963Z,12.50
2023-04-03T10:57:33.009Z,12.41
2023-04-03T11:02:29.528Z,12.57
2023-04-03T11:07:33.913Z,12.46
2023-04-03T11:12:39.776Z,12.44
2023-04-03T11:17:39.279Z,12.43
2023-04-03T11:22:38.727Z,11.92
2023-04-03T11:27:40.409Z,11.84
2023-04-03T11:32:38.166Z,12.23
2023-04-03T11:37:30.485Z,12.63
2023-04-03T11:42:31.723Z,13.00
2023-04-03T11:47:49.510Z,13.11
2023-04-03T11:52:44.342Z,12.93
2023-04-03T11:58:02.979Z,13.00
2023-04-03T12:02:55.214Z,13.31
2023-04-03T12:08:25.477Z,13.55
2023-04-03T12:13:17.655Z,13.32
2023-04-03T12:18:43.700Z,12.86
2023-04-03T12:23:39.520Z,12.92
2023-04-03T12:28:37.317Z,13.06
2023-04-03T12:33:42.426Z,13.03
2023-04-03T12:39:02.558Z,12.86
2023-04-03T12:44:38.867Z,12.61
2023-04-03T12:49:30.433Z,12.57
2023-04-03T12:54:28.351Z,12.47
2023-04-03T12:59:21.739Z,12.27
2023-04-03T13:04:13.752Z,12.16
2023-04-03T13:09:07.615Z,12.21
2023-04-03T13:14:03.135Z,12.11
2023-04-03T13:18:56.001Z,12.05
2023-04-03T13:23:53.370Z,11.96
2023-04-03T13:28:52.449Z,11.88
2023-04-03T13:34:25.263Z,11.89
2023-04-03T13:39:16.824Z,11.69
2023-04-03T13:44:23.280Z,11.56
2023-04-03T13:49:28.228Z,11.51
2023-04-03T13:54:25.778Z,11.52
2023-04-03T13:59:17.467Z,11.54
2023-04-03T14:04:28.968Z,11.51
2023-04-03T14:09:22.821Z,11.41
2023-04-03T14:14:19.027Z,11.36
2023-04-03T14:19:26.894Z,11.32
2023-04-03T14:24:18.812Z,11.41
2023-04-03T14:29:12.338Z,11.45
2023-04-03T14:34:04.061Z,11.39
2023-04-03T14:38:56.524Z,11.36
2023-04-03T14:43:48.678Z,11.39
2023-04-03T14:48:40.448Z,11.33
2023-04-03T14:53:38.959Z,11.37
2023-04-03T14:58:31.338Z,11.39
2023-04-03T15:03:24.442Z,11.50
2023-04-03T15:08:22.620Z,11.52
2023-04-03T15:13:14.712Z,11.53
2023-04-03T15:18:06.734Z,11.56
2023-04-03T15:22:58.537Z,11.61
2023-04-03T15:27:50.384Z,11.56
2023-04-03T15:32:42.014Z,11.50
2023-04-03T15:37:33.847Z,11.51
2023-04-03T15:42:25.691Z,11.61
2023-04-03T15:47:17.881Z,11.61
2023-04-03T15:52:09.641Z,11.51
2023-04-03T15:57:01.402Z,11.45
2023-04-03T16:01:53.922Z,11.40
2023-04-03T16:06:45.763Z,11.37
2023-04-03T16:11:40.925Z,11.34
2023-04-03T16:16:32.864Z,11.33
2023-04-03T16:21:24.989Z,11.28
2023-04-03T16:26:18.384Z,11.26
2023-04-03T16:31:10.783Z,11.25
2023-04-03T16:36:02.808Z,11.23
2023-04-03T16:40:57.901Z,11.22
2023-04-03T16:45:49.601Z,11.18
2023-04-03T16:50:41.225Z,11.13
2023-04-03T16:55:32.890Z,11.11
2023-04-03T17:00:24.501Z,11.08
2023-04-03T17:05:16.325Z,11.06
2023-04-03T17:10:08.723Z,11.02
2023-04-03T17:15:00.535Z,10.94
2023-04-03T17:19:52.279Z,10.89
2023-04-03T17:24:44.716Z,10.82
2023-04-03T17:29:36.323Z,10.80
2023-04-03T17:34:28.142Z,10.77
2023-04-03T17:39:19.803Z,10.71
2023-04-03T17:44:11.969Z,10.70
2023-04-03T17:49:04.753Z,10.65
2023-04-03T17:53:56.578Z,10.62
2023-04-03T17:58:49.075Z,10.55
2023-04-03T18:03:41.392Z,10.46
2023-04-03T18:08:37.693Z,10.38
2023-04-03T18:13:29.477Z,10.29
2023-04-03T18:18:21.249Z,10.20
2023-04-03T18:23:13.082Z,10.08
2023-04-03T18:28:06.834Z,9.97
2023-04-03T18:32:58.480Z,9.94
2023-04-03T18:37:50.804Z,9.85
2023-04-03T18:42:43.227Z,9.74
2023-04-03T18:47:36.995Z,9.61
2023-04-03T18:52:28.729Z,9.50
2023-04-03T18:57:20.405Z,9.41
2023-04-03T19:02:13.269Z,9.33
2023-04-03T19:07:06.603Z,9.25
2023-04-03T19:11:58.450Z,9.14
2023-04-03T19:16:50.067Z,9.05
2023-04-03T19:21:42.235Z,8.95
2023-04-03T19:26:34.012Z,8.90
2023-04-03T19:31:25.715Z,8.85
2023-04-03T19:36:19.016Z,8.82
2023-04-03T19:41:18.996Z,8.77
2023-04-03T19:46:10.729Z,8.71
2023-04-03T19:51:04.834Z,8.67
2023-04-03T19:55:57.640Z,8.61
2023-04-03T20:00:49.656Z,8.55
2023-04-03T20:05:41.623Z,8.50
2023-04-03T20:10:33.745Z,8.46
2023-04-03T20:15:26.513Z,8.39
2023-04-03T20:20:19.596Z,8.35
2023-04-03T20:25:15.356Z,8.32
2023-04-03T20:30:13.246Z,8.24
2023-04-03T20:35:05.257Z,8.19
2023-04-03T20:39:56.893Z,8.14
2023-04-03T20:44:48.505Z,8.11
2023-04-03T20:49:43.548Z,8.07
2023-04-03T20:54:35.173Z,8.00
2023-04-03T20:59:26.791Z,7.93
2023-04-03T21:04:27.684Z,7.89
2023-04-03T21:09:57.012Z,7.83
2023-04-03T21:15:26.446Z,7.76
2023-04-03T21:20:18.015Z,7.66
2023-04-03T21:25:09.827Z,7.63
2023-04-03T21:30:05.541Z,7.56
2023-04-03T21:34:58.150Z,7.48
2023-04-03T21:39:50.041Z,7.41
2023-04-03T21:44:41.751Z,7.31
2023-04-03T21:49:33.965Z,7.23
2023-04-03T21:54:25.710Z,7.16
2023-04-03T21:59:17.443Z,7.08
2023-04-03T22:04:09.277Z,7.03
2023-04-03T22:09:01.023Z,6.95
2023-04-03T22:13:54.125Z,6.89
2023-04-03T22:18:45.929Z,6.78
2023-04-03T22:23:38.082Z,6.65
2023-04-03T22:28:32.080Z,6.55
2023-04-03T22:33:24.021Z,6.45
2023-04-03T22:38:16.054Z,6.35
2023-04-03T22:43:07.946Z,6.24
2023-04-03T22:48:00.306Z,6.16
2023-04-03T22:52:51.967Z,6.02
2023-04-03T22:57:49.680Z,5.95
2023-04-03T23:02:42.040Z,5.86
2023-04-03T23:07:34.047Z,5.79
2023-04-03T23:12:25.973Z,5.68
2023-04-03T23:17:17.577Z,5.63
2023-04-03T23:22:09.298Z,5.56
2023-04-03T23:27:01.484Z,5.49
2023-04-03T23:31:53.104Z,5.46
2023-04-03T23:36:44.786Z,5.38
2023-04-03T23:41:36.778Z,5.33
2023-04-03T23:46:28.519Z,5.27
2023-04-03T23:51:20.773Z,5.22
2023-04-03T23:56:13.331Z,5.17
